sensor_id;sensor_type;location;lat;lon;timestamp;P1;durP1;ratioP1;P2;durP2;ratioP2
15915;SDS011;8057;47.830;-3.870;2023-03-26T01:00:26;28.00;;;5.43;;
15915;SDS011;8057;47.830;-3.870;2023-03-26T01:09:18;23.73;;;5.63;;
15915;SDS011;8057;47.830;-3.870;2023-03-26T01:33:38;20.70;;;4.60;;
15915;SDS011;8057;47.830;-3.870;2023-03-26T01:38:58;27.67;;;5.43;;
15915;SDS011;8057;47.830;-3.870;2023-03-26T01:43:27;30.73;;;6.30;;
15915;SDS011;8057;47.830;-3.870;2023-03-26T06:41:19;31.10;;;6.57;;
15915;SDS011;8057;47.830;-3.870;2023-03-26T06:46:37;28.30;;;6.60;;
15915;SDS011;8057;47.830;-3.870;2023-03-26T09:13:13;7.23;;;1.60;;
15915;SDS011;8057;47.830;-3.870;2023-03-26T10:13:37;8.70;;;1.90;;
15915;SDS011;8057;47.830;-3.870;2023-03-26T11:20:31;7.30;;;2.50;;
15915;SDS011;8057;47.830;-3.870;2023-03-26T11:25:22;10.63;;;2.27;;
15915;SDS011;8057;47.830;-3.870;2023-03-26T11:29:44;9.60;;;3.07;;
15915;SDS011;8057;47.830;-3.870;2023-03-26T11:33:59;9.83;;;2.17;;
15915;SDS011;8057;47.830;-3.870;2023-03-26T11:53:09;8.27;;;2.57;;
15915;SDS011;8057;47.830;-3.870;2023-03-26T11:57:26;7.07;;;2.40;;
15915;SDS011;8057;47.830;-3.870;2023-03-26T12:01:47;11.53;;;2.63;;
15915;SDS011;8057;47.830;-3.870;2023-03-26T12:06:21;9.70;;;2.43;;
15915;SDS011;8057;47.830;-3.870;2023-03-26T12:20:33;9.13;;;2.83;;
15915;SDS011;8057;47.830;-3.870;2023-03-26T12:25:15;4.17;;;1.20;;
15915;SDS011;8057;47.830;-3.870;2023-03-26T12:29:31;4.70;;;1.50;;
15915;SDS011;8057;47.830;-3.870;2023-03-26T12:34:04;6.97;;;1.43;;
15915;SDS011;8057;47.830;-3.870;2023-03-26T12:38:39;3.03;;;1.20;;
15915;SDS011;8057;47.830;-3.870;2023-03-26T12:43:39;2.80;;;1.07;;
15915;SDS011;8057;47.830;-3.870;2023-03-26T12:48:24;3.47;;;1.40;;
15915;SDS011;8057;47.830;-3.870;2023-03-26T12:52:39;3.70;;;1.00;;
15915;SDS011;8057;47.830;-3.870;2023-03-26T12:57:37;2.63;;;1.10;;
15915;SDS011;8057;47.830;-3.870;2023-03-26T13:26:03;2.77;;;0.67;;
15915;SDS011;8057;47.830;-3.870;2023-03-26T13:30:26;2.47;;;1.20;;
15915;SDS011;8057;47.830;-3.870;2023-03-26T13:34:45;1.77;;;0.77;;
15915;SDS011;8057;47.830;-3.870;2023-03-26T13:39:08;3.40;;;0.93;;
15915;SDS011;8057;47.830;-3.870;2023-03-26T13:43:32;2.40;;;0.67;;
15915;SDS011;8057;47.830;-3.870;2023-03-26T13:47:49;1.43;;;0.90;;
15915;SDS011;8057;47.830;-3.870;2023-03-26T13:52:42;4.57;;;1.20;;
15915;SDS011;8057;47.830;-3.870;2023-03-26T13:57:03;3.00;;;1.27;;
15915;SDS011;8057;47.830;-3.870;2023-03-26T14:11:26;4.23;;;1.13;;
15915;SDS011;8057;47.830;-3.870;2023-03-26T14:16:33;5.57;;;1.17;;
15915;SDS011;8057;47.830;-3.870;2023-03-26T14:21:49;3.97;;;1.40;;
15915;SDS011;8057;47.830;-3.870;2023-03-26T14:27:18;3.27;;;1.00;;
15915;SDS011;8057;47.830;-3.870;2023-03-26T14:31:53;2.73;;;0.97;;
15915;SDS011;8057;47.830;-3.870;2023-03-26T14:36:39;2.47;;;1.10;;
15915;SDS011;8057;47.830;-3.870;2023-03-26T14:41:35;4.27;;;1.50;;
15915;SDS011;8057;47.830;-3.870;2023-03-26T14:46:33;2.43;;;0.80;;
15915;SDS011;8057;47.830;-3.870;2023-03-26T14:52:04;2.87;;;1.20;;
15915;SDS011;8057;47.830;-3.870;2023-03-26T14:57:05;5.77;;;1.40;;
15915;SDS011;8057;47.830;-3.870;2023-03-26T17:02:05;5.80;;;1.60;;
15915;SDS011;8057;47.830;-3.870;2023-03-26T17:07:05;3.77;;;1.40;;
15915;SDS011;8057;47.830;-3.870;2023-03-26T17:11:23;6.10;;;1.50;;
15915;SDS011;8057;47.830;-3.870;2023-03-26T17:15:44;7.50;;;1.40;;
15915;SDS011;8057;47.830;-3.870;2023-03-26T17:20:17;4.73;;;1.37;;
15915;SDS011;8057;47.830;-3.870;2023-03-26T17:24:41;6.10;;;1.60;;
15915;SDS011;8057;47.830;-3.870;2023-03-26T17:28:59;7.27;;;2.17;;
15915;SDS011;8057;47.830;-3.870;2023-03-26T17:33:26;7.43;;;1.97;;
15915;SDS011;8057;47.830;-3.870;2023-03-26T17:47:33;6.50;;;2.20;;
15915;SDS011;8057;47.830;-3.870;2023-03-26T17:51:59;5.43;;;1.63;;
15915;SDS011;8057;47.830;-3.870;2023-03-26T17:56:13;7.70;;;2.37;;
15915;SDS011;8057;47.830;-3.870;2023-03-26T18:54:58;9.57;;;2.13;;
15915;SDS011;8057;47.830;-3.870;2023-03-26T18:59:46;6.93;;;2.40;;
15915;SDS011;8057;47.830;-3.870;2023-03-26T19:04:19;5.67;;;1.90;;
15915;SDS011;8057;47.830;-3.870;2023-03-26T19:08:51;4.27;;;1.67;;
